createdAt,value
2022-12-03T00:02:18.823Z,102381.00
2022-12-03T00:04:45.674Z,102374.00
2022-12-03T00:07:12.418Z,102395.00
2022-12-03T00:09:39.152Z,102382.00
2022-12-03T00:12:06.145Z,102367.00
2022-12-03T00:14:32.935Z,102383.00
2022-12-03T00:16:59.810Z,102350.00
2022-12-03T00:19:26.562Z,102368.00
2022-12-03T00:21:53.311Z,102368.00
2022-12-03T00:24:20.106Z,102358.00
2022-12-03T00:26:47.020Z,102369.00
2022-12-03T00:29:13.953Z,102359.00
2022-12-03T00:31:42.093Z,102373.00
2022-12-03T00:34:08.949Z,102359.00
2022-12-03T00:36:35.691Z,102368.00
2022-12-03T00:39:02.538Z,102364.00
2022-12-03T00:41:29.305Z,102366.00
2022-12-03T00:43:57.677Z,102364.00
2022-12-03T00:46:27.720Z,102359.00
2022-12-03T00:48:54.517Z,102358.00
2022-12-03T00:51:21.288Z,102360.00
2022-12-03T00:53:48.049Z,102342.00
2022-12-03T00:56:14.815Z,102354.00
2022-12-03T00:58:41.547Z,102369.00
2022-12-03T01:01:08.341Z,102371.00
2022-12-03T01:03:35.330Z,102368.00
2022-12-03T01:06:02.067Z,102370.00
2022-12-03T01:08:28.865Z,102364.00
2022-12-03T01:10:55.617Z,102368.00
2022-12-03T01:13:22.368Z,102373.00
2022-12-03T01:15:49.209Z,102361.00
2022-12-03T01:18:16.099Z,102369.00
2022-12-03T01:20:42.996Z,102376.00
2022-12-03T01:23:09.739Z,102385.00
2022-12-03T01:25:36.472Z,102376.00
2022-12-03T01:28:03.232Z,102377.00
2022-12-03T01:30:50.066Z,102388.00
2022-12-03T01:33:16.861Z,102390.00
2022-12-03T01:35:43.597Z,102373.00
2022-12-03T01:38:10.552Z,102370.00
2022-12-03T01:40:37.305Z,102375.00
2022-12-03T01:43:04.054Z,102373.00
2022-12-03T01:45:31.481Z,102364.00
2022-12-03T01:47:58.231Z,102361.00
2022-12-03T01:50:31.784Z,102366.00
2022-12-03T01:53:00.577Z,102369.00
2022-12-03T01:55:27.818Z,102378.00
2022-12-03T01:57:59.704Z,102370.00
2022-12-03T02:00:27.893Z,102362.00
2022-12-03T02:03:04.034Z,102357.00
2022-12-03T02:05:32.280Z,102361.00
2022-12-03T02:07:59.761Z,102370.00
2022-12-03T02:10:32.284Z,102357.00
2022-12-03T02:13:07.739Z,102353.00
2022-12-03T02:15:35.370Z,102336.00
2022-12-03T02:18:02.224Z,102353.00
2022-12-03T02:20:30.992Z,102353.00
2022-12-03T02:23:09.709Z,102341.00
2022-12-03T02:25:36.809Z,102341.00
2022-12-03T02:28:05.051Z,102357.00
2022-12-03T02:30:32.491Z,102361.00
2022-12-03T02:32:59.586Z,102351.00
2022-12-03T02:35:30.187Z,102342.00
2022-12-03T02:38:04.047Z,102348.00
2022-12-03T02:40:32.456Z,102346.00
2022-12-03T02:43:01.436Z,102350.00
2022-12-03T02:45:39.405Z,102345.00
2022-12-03T02:48:11.481Z,102366.00
2022-12-03T02:50:41.241Z,102350.00
2022-12-03T02:53:11.780Z,102362.00
2022-12-03T02:55:39.078Z,102358.00
2022-12-03T02:58:06.619Z,102361.00
2022-12-03T03:00:35.773Z,102372.00
2022-12-03T03:03:03.755Z,102369.00
2022-12-03T03:05:30.908Z,102361.00
2022-12-03T03:07:58.487Z,102368.00
2022-12-03T03:10:26.132Z,102368.00
2022-12-03T03:12:54.650Z,102383.00
2022-12-03T03:15:22.523Z,102371.00
2022-12-03T03:17:49.356Z,102359.00
2022-12-03T03:20:16.207Z,102372.00
2022-12-03T03:22:43.592Z,102377.00
2022-12-03T03:25:16.203Z,102374.00
2022-12-03T03:27:43.253Z,102372.00
2022-12-03T03:30:11.105Z,102372.00
2022-12-03T03:32:39.032Z,102370.00
2022-12-03T03:35:06.891Z,102356.00
2022-12-03T03:37:33.776Z,102362.00
2022-12-03T03:40:00.537Z,102352.00
2022-12-03T03:42:27.511Z,102353.00
2022-12-03T03:44:54.757Z,102354.00
2022-12-03T03:47:23.821Z,102354.00
2022-12-03T03:49:50.898Z,102350.00
2022-12-03T03:52:19.110Z,102345.00
2022-12-03T03:54:46.204Z,102332.00
2022-12-03T03:57:12.976Z,102351.00
2022-12-03T03:59:39.796Z,102344.00
2022-12-03T04:02:06.552Z,102339.00
2022-12-03T04:04:36.504Z,102346.00
2022-12-03T04:07:03.396Z,102322.00
2022-12-03T04:09:30.139Z,102339.00
2022-12-03T04:12:15.515Z,102334.00
2022-12-03T04:14:43.937Z,102327.00
2022-12-03T04:17:10.894Z,102327.00
2022-12-03T04:19:37.696Z,102325.00
2022-12-03T04:22:23.008Z,102323.00
2022-12-03T04:24:49.781Z,102326.00
2022-12-03T04:27:35.234Z,102323.00
2022-12-03T04:30:01.994Z,102320.00
2022-12-03T04:32:47.331Z,102316.00
2022-12-03T04:35:32.785Z,102320.00
2022-12-03T04:38:01.431Z,102320.00
2022-12-03T04:40:46.878Z,102326.00
2022-12-03T04:43:13.731Z,102328.00
2022-12-03T04:45:40.524Z,102326.00
2022-12-03T04:48:07.473Z,102325.00
2022-12-03T04:50:34.218Z,102324.00
2022-12-03T04:53:00.954Z,102315.00
2022-12-03T04:55:27.716Z,102311.00
2022-12-03T04:57:54.445Z,102308.00
2022-12-03T05:00:21.302Z,102312.00
2022-12-03T05:02:48.157Z,102309.00
2022-12-03T05:05:15.017Z,102326.00
2022-12-03T05:07:42.253Z,102330.00
2022-12-03T05:10:09.637Z,102314.00
2022-12-03T05:12:36.748Z,102307.00
2022-12-03T05:15:05.397Z,102309.00
2022-12-03T05:17:32.392Z,102305.00
2022-12-03T05:20:17.749Z,102288.00
2022-12-03T05:22:44.535Z,102298.00
2022-12-03T05:25:11.498Z,102297.00
2022-12-03T05:27:38.227Z,102285.00
2022-12-03T05:30:05.637Z,102293.00
2022-12-03T05:32:32.387Z,102290.00
2022-12-03T05:34:59.112Z,102284.00
2022-12-03T05:37:25.875Z,102302.00
2022-12-03T05:39:52.617Z,102297.00
2022-12-03T05:42:37.913Z,102298.00
2022-12-03T05:45:05.160Z,102291.00
2022-12-03T05:47:31.972Z,102273.00
2022-12-03T05:49:58.730Z,102271.00
2022-12-03T05:52:25.505Z,102279.00
2022-12-03T05:54:52.612Z,102276.00
2022-12-03T05:57:19.565Z,102276.00
2022-12-03T05:59:46.290Z,102277.00
2022-12-03T06:02:13.355Z,102270.00
2022-12-03T06:04:40.204Z,102272.00
2022-12-03T06:07:12.350Z,102272.00
2022-12-03T06:09:40.640Z,102281.00
2022-12-03T06:12:08.729Z,102267.00
2022-12-03T06:14:35.693Z,102262.00
2022-12-03T06:17:03.131Z,102260.00
2022-12-03T06:19:29.870Z,102263.00
2022-12-03T06:21:56.693Z,102260.00
2022-12-03T06:24:23.483Z,102255.00
2022-12-03T06:26:50.210Z,102259.00
2022-12-03T06:29:17.022Z,102245.00
2022-12-03T06:31:43.859Z,102241.00
2022-12-03T06:34:10.662Z,102249.00
2022-12-03T06:36:37.454Z,102245.00
2022-12-03T06:39:04.218Z,102263.00
2022-12-03T06:41:31.013Z,102246.00
2022-12-03T06:43:57.832Z,102245.00
2022-12-03T06:46:24.700Z,102248.00
2022-12-03T06:48:51.556Z,102248.00
2022-12-03T06:51:18.267Z,102237.00
2022-12-03T06:53:45.022Z,102245.00
2022-12-03T06:56:11.767Z,102246.00
2022-12-03T06:58:38.578Z,102250.00
2022-12-03T07:01:05.536Z,102250.00
2022-12-03T07:03:32.275Z,102245.00
2022-12-03T07:05:59.018Z,102247.00
2022-12-03T07:08:25.825Z,102239.00
2022-12-03T07:10:52.601Z,102242.00
2022-12-03T07:13:19.389Z,102244.00
2022-12-03T07:15:46.243Z,102240.00
2022-12-03T07:18:13.072Z,102248.00
2022-12-03T07:20:39.830Z,102240.00
2022-12-03T07:23:06.578Z,102249.00
2022-12-03T07:25:33.614Z,102240.00
2022-12-03T07:28:00.659Z,102243.00
2022-12-03T07:30:27.779Z,102250.00
2022-12-03T07:32:54.699Z,102237.00
2022-12-03T07:35:21.609Z,102245.00
2022-12-03T07:37:48.375Z,102241.00
2022-12-03T07:40:15.197Z,102243.00
2022-12-03T07:42:41.943Z,102236.00
2022-12-03T07:45:09.342Z,102249.00
2022-12-03T07:47:36.090Z,102247.00
2022-12-03T07:50:02.938Z,102242.00
2022-12-03T07:52:30.003Z,102242.00
2022-12-03T07:54:56.804Z,102243.00
2022-12-03T07:57:23.619Z,102233.00
2022-12-03T07:59:50.368Z,102243.00
2022-12-03T08:02:21.264Z,102242.00
2022-12-03T08:04:48.727Z,102236.00
2022-12-03T08:07:15.473Z,102244.00
2022-12-03T08:09:45.584Z,102238.00
2022-12-03T08:12:39.856Z,102243.00
2022-12-03T08:15:10.263Z,102240.00
2022-12-03T08:17:39.115Z,102236.00
2022-12-03T08:20:13.492Z,102235.00
2022-12-03T08:22:41.861Z,102230.00
2022-12-03T08:25:27.880Z,102227.00
2022-12-03T08:28:13.110Z,102224.00
2022-12-03T08:30:41.275Z,102220.00
2022-12-03T08:33:31.006Z,102216.00
2022-12-03T08:35:57.802Z,102228.00
2022-12-03T08:38:24.904Z,102218.00
2022-12-03T08:40:52.921Z,102219.00
2022-12-03T08:43:24.504Z,102229.00
2022-12-03T08:45:53.112Z,102223.00
2022-12-03T08:48:27.385Z,102225.00
2022-12-03T08:51:01.924Z,102221.00
2022-12-03T08:53:35.961Z,102222.00
2022-12-03T08:56:11.780Z,102225.00
2022-12-03T15:46:56.562Z,101986.00
2022-12-03T15:49:23.613Z,101965.00
2022-12-03T15:51:50.557Z,101974.00
2022-12-03T15:54:17.353Z,101967.00
2022-12-03T15:56:44.141Z,101951.00
2022-12-03T15:59:13.473Z,101959.00
2022-12-03T17:13:48.307Z,101955.00
2022-12-03T17:16:15.560Z,101960.00
2022-12-03T17:18:42.679Z,101951.00
2022-12-03T17:21:09.458Z,101950.00
2022-12-03T17:23:36.196Z,101954.00
2022-12-03T17:26:03.002Z,101971.00
2022-12-03T17:28:29.893Z,101960.00
2022-12-03T17:30:56.748Z,101950.00
2022-12-03T17:33:23.793Z,101953.00
2022-12-03T17:35:50.654Z,101951.00
2022-12-03T17:38:17.604Z,101948.00
2022-12-03T17:40:44.465Z,101945.00
2022-12-03T17:43:11.173Z,101960.00
2022-12-03T17:45:37.968Z,101961.00
2022-12-03T17:48:04.752Z,101950.00
2022-12-03T17:50:31.457Z,101965.00
2022-12-03T17:52:58.478Z,101940.00
2022-12-03T17:55:35.908Z,101953.00
2022-12-03T17:58:04.450Z,101968.00
2022-12-03T18:00:31.621Z,101955.00
2022-12-03T18:02:58.392Z,101971.00
2022-12-03T18:05:25.253Z,101962.00
2022-12-03T18:07:52.050Z,101982.00
2022-12-03T18:10:18.871Z,101956.00
2022-12-03T18:12:45.559Z,101962.00
2022-12-03T18:15:12.304Z,101966.00
2022-12-03T18:17:38.985Z,101960.00
2022-12-03T18:20:06.588Z,101960.00
2022-12-03T18:22:33.733Z,101954.00
2022-12-03T18:25:00.664Z,101950.00
2022-12-03T18:27:27.493Z,101953.00
2022-12-03T18:29:54.488Z,101951.00
2022-12-03T18:32:28.800Z,101956.00
2022-12-03T18:34:56.745Z,101958.00
2022-12-03T18:37:29.146Z,101945.00
2022-12-03T18:39:56.897Z,101946.00
2022-12-03T18:42:24.429Z,101946.00
2022-12-03T18:44:52.888Z,101942.00
2022-12-03T18:47:25.314Z,101957.00
2022-12-03T18:49:52.420Z,101948.00
2022-12-03T18:52:21.420Z,101963.00
2022-12-03T18:54:48.631Z,101953.00
2022-12-03T18:57:15.503Z,101962.00
2022-12-03T18:59:42.291Z,101968.00
2022-12-03T19:02:22.166Z,101971.00
2022-12-03T19:05:01.328Z,101959.00
2022-12-03T19:07:28.081Z,101958.00
2022-12-03T19:09:55.200Z,101948.00
2022-12-03T19:12:22.266Z,101955.00
2022-12-03T19:14:50.165Z,101959.00
2022-12-03T19:17:16.850Z,101955.00
2022-12-03T19:19:43.521Z,101954.00
2022-12-03T19:22:10.183Z,101952.00
2022-12-03T19:24:36.898Z,101950.00
2022-12-03T19:27:03.640Z,101952.00
2022-12-03T19:29:30.342Z,101946.00
2022-12-03T19:31:57.178Z,101953.00
2022-12-03T19:34:24.277Z,101955.00
2022-12-03T19:36:51.094Z,101962.00
2022-12-03T19:39:18.000Z,101957.00
2022-12-03T19:41:44.921Z,101956.00
2022-12-03T19:44:16.249Z,101959.00
2022-12-03T19:46:43.596Z,101968.00
2022-12-03T19:49:11.059Z,101963.00
2022-12-03T19:51:37.925Z,101965.00
2022-12-03T19:54:07.057Z,101960.00
2022-12-03T19:56:34.527Z,101973.00
2022-12-03T19:59:02.336Z,101973.00
2022-12-03T20:01:33.636Z,101968.00
2022-12-03T20:04:02.823Z,101955.00
2022-12-03T20:06:32.890Z,101975.00
2022-12-03T20:09:02.307Z,101958.00
2022-12-03T20:11:31.910Z,101979.00
2022-12-03T20:14:00.787Z,101961.00
2022-12-03T20:16:28.428Z,101956.00
2022-12-03T20:19:01.103Z,101960.00
2022-12-03T20:21:29.920Z,101961.00
2022-12-03T20:23:57.339Z,101972.00
2022-12-03T20:26:25.060Z,101978.00
2022-12-03T20:28:54.423Z,101976.00
2022-12-03T20:31:23.832Z,101978.00
2022-12-03T20:33:52.827Z,101976.00
2022-12-03T20:36:21.212Z,101973.00
2022-12-03T20:38:48.326Z,101975.00
2022-12-03T20:41:21.435Z,101971.00
2022-12-03T20:43:48.945Z,101978.00
2022-12-03T20:46:17.149Z,101964.00
2022-12-03T20:48:45.053Z,101986.00
2022-12-03T20:51:14.731Z,101990.00
2022-12-03T20:53:42.387Z,101998.00
2022-12-03T20:56:09.667Z,101994.00
2022-12-03T20:58:36.565Z,101999.00
2022-12-03T21:01:16.087Z,101993.00
2022-12-03T21:03:44.072Z,101997.00
2022-12-03T21:06:11.910Z,102000.00
2022-12-03T21:08:41.876Z,101994.00
2022-12-03T21:11:17.019Z,102006.00
2022-12-03T21:13:44.461Z,101999.00
2022-12-03T21:16:16.485Z,102001.00
2022-12-03T21:18:43.574Z,101991.00
2022-12-03T21:21:11.790Z,101990.00
2022-12-03T21:23:38.564Z,102003.00
2022-12-03T21:26:06.821Z,101981.00
2022-12-03T21:28:33.867Z,101971.00
2022-12-03T21:31:02.409Z,101966.00
2022-12-03T21:33:30.255Z,101967.00
2022-12-03T21:35:58.003Z,101973.00
2022-12-03T21:38:25.823Z,101982.00
2022-12-03T21:40:53.121Z,101992.00
2022-12-03T21:43:20.328Z,101975.00
2022-12-03T21:45:47.507Z,101997.00
2022-12-03T21:48:14.743Z,102009.00
2022-12-03T21:50:41.626Z,102011.00
2022-12-03T21:53:08.700Z,102003.00
2022-12-03T21:55:38.043Z,102013.00
2022-12-03T21:58:04.837Z,102027.00
2022-12-03T22:00:31.758Z,102017.00
2022-12-03T22:02:58.600Z,102012.00
2022-12-03T22:05:25.404Z,102006.00
2022-12-03T22:07:52.251Z,102022.00
2022-12-03T22:10:19.397Z,102011.00
2022-12-03T22:12:46.179Z,102012.00
2022-12-03T22:15:18.484Z,102012.00
2022-12-03T22:17:46.369Z,102007.00
2022-12-03T22:20:13.653Z,101989.00
2022-12-03T22:22:40.411Z,101999.00
2022-12-03T22:25:07.874Z,102022.00
2022-12-03T22:27:34.843Z,102006.00
2022-12-03T22:30:02.324Z,102009.00
2022-12-03T22:32:29.329Z,102005.00
2022-12-03T22:34:56.167Z,102007.00
2022-12-03T22:37:23.002Z,102001.00
2022-12-03T22:39:49.787Z,102017.00
2022-12-03T22:42:16.536Z,102012.00
2022-12-03T22:44:43.342Z,102007.00
2022-12-03T22:47:10.147Z,102014.00
2022-12-03T22:49:36.967Z,102000.00
2022-12-03T22:52:03.731Z,101992.00
2022-12-03T22:54:30.534Z,102001.00
2022-12-03T22:56:57.404Z,101990.00
2022-12-03T22:59:24.409Z,102002.00
2022-12-03T23:01:51.379Z,101981.00
2022-12-03T23:04:18.245Z,101985.00
2022-12-03T23:06:45.166Z,101997.00
2022-12-03T23:09:11.987Z,101998.00
2022-12-03T23:11:38.843Z,102011.00
2022-12-03T23:14:05.769Z,101991.00
2022-12-03T23:16:33.767Z,101986.00
2022-12-03T23:19:01.774Z,101986.00
2022-12-03T23:21:31.030Z,101970.00
2022-12-03T23:24:01.954Z,101982.00
2022-12-03T23:26:29.293Z,101981.00
2022-12-03T23:28:56.363Z,101986.00
2022-12-03T23:31:31.779Z,101988.00
2022-12-03T23:33:59.488Z,101983.00
2022-12-03T23:36:28.589Z,101973.00
2022-12-03T23:38:55.484Z,101979.00
2022-12-03T23:41:23.543Z,101987.00
2022-12-03T23:43:50.269Z,101962.00
2022-12-03T23:46:19.812Z,101978.00
2022-12-03T23:48:46.728Z,101966.00
2022-12-03T23:51:17.069Z,101965.00
2022-12-03T23:53:44.752Z,101983.00
2022-12-03T23:56:18.984Z,101978.00
2022-12-03T23:58:46.300Z,101963.00
